North Woodstock, NH

3:42 PM EST on February 01, 2015 (GMT -0500)
Lincoln, NH | Change Station
CLOSE
Current Station
Personal Weather Station
Location: Lincoln, NH
Elevation: 860 ft
Nearby Weather Stations
Active Advisory: Winter Storm Warning

Elev 860 ft 44.05 °N, 71.67 °W | Updated 1 second ago

Clear
Clear
12.8 °F
Feels Like 3 °F
N
6.0
Wind Variable Wind from NW
Gusts 12.0 mph

Today
High -- | Low -- °F
--% Chance of Precip.
Yesterday
High -- | Low -- °F
Precip. -- in
7:04 AM 4:56 PM
Waxing Gibbous, 96% visible
Pressure 30.12 in
Visibility 10.0 miles
Clouds Clear
Windchill 3 °F
Dew Point -6 °F
Humidity 43%
Rainfall 0.00 in
Snow Depth Not available.
UV 1 out of 12
Pollen .10 out of 12
Air Quality Not available.
Flu Activity Not available.
METAR K1P1 012035Z AUTO 30009G15KT 10SM CLR M08/M18 A3012 RMK AO2 T10851185

More Conditions Fewer Conditions

Pressure 30.12 in
Visibility 10.0 miles
Clouds Clear
Windchill 3 °F
Dew Point -6 °F
Humidity 43%
Rainfall 0.00 in
Snow Depth Not available.
UV 1 out of 12
Pollen .10 out of 12
Air Quality Not available.
Flu Activity Not available.
METAR K1P1 012035Z AUTO 30009G15KT 10SM CLR M08/M18 A3012 RMK AO2 T10851185

More Conditions Fewer Conditions

10-Day Weather Forecast

Almanac

Astronomy

Feb. 01, 2015 Rise Set
Actual Time
Civil Twilight
Nautical Twilight
Astronomical Twilight
Moon
Length of Visible Light
Length of Day
Tomorrow will be .
, % of the Moon is Illuminated

Today's Extremes

State Highs State Lows

Community

WunderPhotos

Upload Photos

1,792,514 photos uploaded!

WunderBlogs® & News

Nearby

Air Quality

  Air Quality AQ Index Pollutant
Not available.

Snow Depth

Station Depth Elevation

Earthquake Activity

City Distance Mag. Time & Date
Minimum magnitude displayed is 2.5.

Coastal Water Temperatures

Place Temperature

Nearby Weather Stations